sensor_id;sensor_type;location;lat;lon;timestamp;temperature;humidity
20487;DHT22;10402;49.012;8.370;2024-02-21T00:01:26;10.20;80.40
20487;DHT22;10402;49.012;8.370;2024-02-21T00:03:51;10.30;80.50
20487;DHT22;10402;49.012;8.370;2024-02-21T00:06:17;10.30;80.40
20487;DHT22;10402;49.012;8.370;2024-02-21T00:08:42;10.30;80.30
20487;DHT22;10402;49.012;8.370;2024-02-21T00:11:08;10.20;80.20
20487;DHT22;10402;49.012;8.370;2024-02-21T00:13:33;10.30;80.40
20487;DHT22;10402;49.012;8.370;2024-02-21T00:16:00;10.30;80.40
20487;DHT22;10402;49.012;8.370;2024-02-21T00:18:26;10.20;80.30
20487;DHT22;10402;49.012;8.370;2024-02-21T00:20:51;10.30;80.40
20487;DHT22;10402;49.012;8.370;2024-02-21T00:23:18;10.30;80.30
20487;DHT22;10402;49.012;8.370;2024-02-21T00:25:43;10.30;80.40
20487;DHT22;10402;49.012;8.370;2024-02-21T00:28:09;10.30;80.30
20487;DHT22;10402;49.012;8.370;2024-02-21T00:30:34;10.30;80.40
20487;DHT22;10402;49.012;8.370;2024-02-21T00:33:00;10.30;80.30
20487;DHT22;10402;49.012;8.370;2024-02-21T00:35:25;10.30;80.10
20487;DHT22;10402;49.012;8.370;2024-02-21T00:37:51;10.30;80.10
20487;DHT22;10402;49.012;8.370;2024-02-21T00:40:17;10.30;80.10
20487;DHT22;10402;49.012;8.370;2024-02-21T00:42:45;10.30;79.90
20487;DHT22;10402;49.012;8.370;2024-02-21T00:45:11;10.30;79.90
20487;DHT22;10402;49.012;8.370;2024-02-21T00:47:37;10.30;79.60
20487;DHT22;10402;49.012;8.370;2024-02-21T00:50:02;10.30;79.80
20487;DHT22;10402;49.012;8.370;2024-02-21T00:52:28;10.30;79.90
20487;DHT22;10402;49.012;8.370;2024-02-21T00:54:53;10.30;80.00
20487;DHT22;10402;49.012;8.370;2024-02-21T00:57:19;10.30;80.00
20487;DHT22;10402;49.012;8.370;2024-02-21T00:59:45;10.30;79.90
20487;DHT22;10402;49.012;8.370;2024-02-21T01:02:10;10.30;80.00
20487;DHT22;10402;49.012;8.370;2024-02-21T01:04:36;10.30;80.30
20487;DHT22;10402;49.012;8.370;2024-02-21T01:07:02;10.30;80.50
20487;DHT22;10402;49.012;8.370;2024-02-21T01:09:27;10.30;81.00
20487;DHT22;10402;49.012;8.370;2024-02-21T01:11:53;10.30;81.30
20487;DHT22;10402;49.012;8.370;2024-02-21T01:14:18;10.30;81.50
20487;DHT22;10402;49.012;8.370;2024-02-21T01:16:44;10.20;82.70
20487;DHT22;10402;49.012;8.370;2024-02-21T01:19:10;10.20;82.70
20487;DHT22;10402;49.012;8.370;2024-02-21T01:21:35;10.10;83.40
20487;DHT22;10402;49.012;8.370;2024-02-21T01:24:01;10.10;84.00
20487;DHT22;10402;49.012;8.370;2024-02-21T01:26:26;10.10;84.60
20487;DHT22;10402;49.012;8.370;2024-02-21T01:28:52;10.10;85.00
20487;DHT22;10402;49.012;8.370;2024-02-21T01:31:17;10.10;85.30
20487;DHT22;10402;49.012;8.370;2024-02-21T01:33:43;10.10;85.70
20487;DHT22;10402;49.012;8.370;2024-02-21T01:36:08;10.00;85.80
20487;DHT22;10402;49.012;8.370;2024-02-21T01:38:34;10.00;85.80
20487;DHT22;10402;49.012;8.370;2024-02-21T01:41:00;10.10;85.80
20487;DHT22;10402;49.012;8.370;2024-02-21T01:43:25;10.10;85.70
20487;DHT22;10402;49.012;8.370;2024-02-21T01:45:57;10.00;85.70
20487;DHT22;10402;49.012;8.370;2024-02-21T01:48:24;10.10;85.80
20487;DHT22;10402;49.012;8.370;2024-02-21T01:50:51;10.00;85.60
20487;DHT22;10402;49.012;8.370;2024-02-21T01:53:20;10.00;85.70
20487;DHT22;10402;49.012;8.370;2024-02-21T01:55:46;10.00;86.00
20487;DHT22;10402;49.012;8.370;2024-02-21T01:58:16;10.00;86.20
20487;DHT22;10402;49.012;8.370;2024-02-21T02:00:43;10.00;86.00
20487;DHT22;10402;49.012;8.370;2024-02-21T02:03:12;9.90;87.00
20487;DHT22;10402;49.012;8.370;2024-02-21T02:05:48;9.90;87.30
20487;DHT22;10402;49.012;8.370;2024-02-21T02:08:18;9.90;87.40
20487;DHT22;10402;49.012;8.370;2024-02-21T02:10:45;9.90;87.60
20487;DHT22;10402;49.012;8.370;2024-02-21T02:13:11;9.90;87.60
20487;DHT22;10402;49.012;8.370;2024-02-21T02:15:47;9.90;87.60
20487;DHT22;10402;49.012;8.370;2024-02-21T02:18:14;9.90;87.90
20487;DHT22;10402;49.012;8.370;2024-02-21T02:20:40;9.90;87.80
20487;DHT22;10402;49.012;8.370;2024-02-21T02:23:12;9.90;87.70
20487;DHT22;10402;49.012;8.370;2024-02-21T02:25:40;9.90;87.60
20487;DHT22;10402;49.012;8.370;2024-02-21T02:28:08;9.90;87.60
20487;DHT22;10402;49.012;8.370;2024-02-21T02:30:35;9.90;87.60
20487;DHT22;10402;49.012;8.370;2024-02-21T02:33:02;9.90;87.50
20487;DHT22;10402;49.012;8.370;2024-02-21T02:35:28;9.90;87.30
20487;DHT22;10402;49.012;8.370;2024-02-21T02:37:53;9.90;87.20
20487;DHT22;10402;49.012;8.370;2024-02-21T02:40:19;9.90;87.00
20487;DHT22;10402;49.012;8.370;2024-02-21T02:42:45;9.90;87.20
20487;DHT22;10402;49.012;8.370;2024-02-21T02:45:10;9.80;87.40
20487;DHT22;10402;49.012;8.370;2024-02-21T02:47:36;9.80;87.40
20487;DHT22;10402;49.012;8.370;2024-02-21T02:50:02;9.80;87.50
20487;DHT22;10402;49.012;8.370;2024-02-21T02:52:28;9.80;87.40
20487;DHT22;10402;49.012;8.370;2024-02-21T02:54:53;9.80;87.20
20487;DHT22;10402;49.012;8.370;2024-02-21T02:57:21;9.90;87.10
20487;DHT22;10402;49.012;8.370;2024-02-21T02:59:50;9.90;86.90
20487;DHT22;10402;49.012;8.370;2024-02-21T03:02:17;9.90;86.80
20487;DHT22;10402;49.012;8.370;2024-02-21T03:04:43;9.90;86.60
20487;DHT22;10402;49.012;8.370;2024-02-21T03:07:08;9.80;86.30
20487;DHT22;10402;49.012;8.370;2024-02-21T03:09:34;9.80;85.90
20487;DHT22;10402;49.012;8.370;2024-02-21T03:11:59;9.80;86.00
20487;DHT22;10402;49.012;8.370;2024-02-21T03:14:28;9.80;86.00
20487;DHT22;10402;49.012;8.370;2024-02-21T03:16:54;9.80;85.90
20487;DHT22;10402;49.012;8.370;2024-02-21T03:19:20;9.90;85.90
20487;DHT22;10402;49.012;8.370;2024-02-21T03:21:45;9.80;85.80
20487;DHT22;10402;49.012;8.370;2024-02-21T03:24:11;9.80;85.90
20487;DHT22;10402;49.012;8.370;2024-02-21T03:26:36;9.80;85.70
20487;DHT22;10402;49.012;8.370;2024-02-21T03:29:03;9.80;85.80
20487;DHT22;10402;49.012;8.370;2024-02-21T03:31:29;9.80;85.80
20487;DHT22;10402;49.012;8.370;2024-02-21T03:33:54;9.80;85.70
20487;DHT22;10402;49.012;8.370;2024-02-21T03:36:20;9.80;86.40
20487;DHT22;10402;49.012;8.370;2024-02-21T03:38:45;9.80;85.40
20487;DHT22;10402;49.012;8.370;2024-02-21T03:41:11;9.80;85.20
20487;DHT22;10402;49.012;8.370;2024-02-21T03:43:39;9.80;85.30
20487;DHT22;10402;49.012;8.370;2024-02-21T03:46:05;9.80;85.50
20487;DHT22;10402;49.012;8.370;2024-02-21T03:48:31;9.80;85.40
20487;DHT22;10402;49.012;8.370;2024-02-21T03:50:56;9.80;85.40
20487;DHT22;10402;49.012;8.370;2024-02-21T03:53:22;9.80;85.70
20487;DHT22;10402;49.012;8.370;2024-02-21T03:55:47;9.80;85.20
20487;DHT22;10402;49.012;8.370;2024-02-21T03:58:13;9.80;85.00
20487;DHT22;10402;49.012;8.370;2024-02-21T04:00:38;9.80;85.50
20487;DHT22;10402;49.012;8.370;2024-02-21T04:03:04;9.70;85.40
20487;DHT22;10402;49.012;8.370;2024-02-21T04:05:30;9.70;85.00
20487;DHT22;10402;49.012;8.370;2024-02-21T04:07:55;9.70;85.10
20487;DHT22;10402;49.012;8.370;2024-02-21T04:10:21;9.60;84.90
20487;DHT22;10402;49.012;8.370;2024-02-21T04:12:46;9.70;85.10
20487;DHT22;10402;49.012;8.370;2024-02-21T04:15:12;9.60;84.70
20487;DHT22;10402;49.012;8.370;2024-02-21T04:17:38;9.60;84.80
20487;DHT22;10402;49.012;8.370;2024-02-21T04:20:05;9.60;84.90
20487;DHT22;10402;49.012;8.370;2024-02-21T04:22:31;9.60;84.90
20487;DHT22;10402;49.012;8.370;2024-02-21T04:24:59;9.60;84.80
20487;DHT22;10402;49.012;8.370;2024-02-21T04:27:25;9.60;84.70
20487;DHT22;10402;49.012;8.370;2024-02-21T04:29:52;9.50;84.50
20487;DHT22;10402;49.012;8.370;2024-02-21T04:32:18;9.50;84.60
20487;DHT22;10402;49.012;8.370;2024-02-21T04:34:43;9.50;84.60
20487;DHT22;10402;49.012;8.370;2024-02-21T04:37:09;9.40;84.60
20487;DHT22;10402;49.012;8.370;2024-02-21T04:39:34;9.40;84.80
20487;DHT22;10402;49.012;8.370;2024-02-21T04:42:00;9.40;84.80
20487;DHT22;10402;49.012;8.370;2024-02-21T04:44:25;9.40;84.80
20487;DHT22;10402;49.012;8.370;2024-02-21T04:46:51;9.40;84.90
20487;DHT22;10402;49.012;8.370;2024-02-21T04:49:16;9.40;85.00
20487;DHT22;10402;49.012;8.370;2024-02-21T04:51:42;9.40;85.20
20487;DHT22;10402;49.012;8.370;2024-02-21T04:54:07;9.40;85.30
20487;DHT22;10402;49.012;8.370;2024-02-21T04:56:33;9.40;85.00
20487;DHT22;10402;49.012;8.370;2024-02-21T04:58:59;9.40;85.00
20487;DHT22;10402;49.012;8.370;2024-02-21T05:01:25;9.40;84.90
20487;DHT22;10402;49.012;8.370;2024-02-21T05:03:50;9.30;84.90
20487;DHT22;10402;49.012;8.370;2024-02-21T05:06:16;9.30;84.90
20487;DHT22;10402;49.012;8.370;2024-02-21T05:08:42;9.30;84.80
20487;DHT22;10402;49.012;8.370;2024-02-21T05:11:07;9.20;84.90
20487;DHT22;10402;49.012;8.370;2024-02-21T05:13:33;9.20;85.00
20487;DHT22;10402;49.012;8.370;2024-02-21T05:15:58;9.20;85.20
20487;DHT22;10402;49.012;8.370;2024-02-21T05:18:27;9.20;85.30
20487;DHT22;10402;49.012;8.370;2024-02-21T05:20:52;9.20;85.20
20487;DHT22;10402;49.012;8.370;2024-02-21T05:23:18;9.10;85.10
20487;DHT22;10402;49.012;8.370;2024-02-21T05:25:43;9.10;85.20
20487;DHT22;10402;49.012;8.370;2024-02-21T05:28:09;9.10;85.30
20487;DHT22;10402;49.012;8.370;2024-02-21T05:30:34;9.10;85.50
20487;DHT22;10402;49.012;8.370;2024-02-21T05:33:04;9.10;85.20
20487;DHT22;10402;49.012;8.370;2024-02-21T05:35:30;9.10;85.40
20487;DHT22;10402;49.012;8.370;2024-02-21T05:37:56;9.00;85.10
20487;DHT22;10402;49.012;8.370;2024-02-21T05:40:21;9.00;85.20
20487;DHT22;10402;49.012;8.370;2024-02-21T05:42:47;9.00;85.40
20487;DHT22;10402;49.012;8.370;2024-02-21T05:45:12;9.00;85.50
20487;DHT22;10402;49.012;8.370;2024-02-21T05:47:38;9.00;85.90
20487;DHT22;10402;49.012;8.370;2024-02-21T05:50:04;8.90;85.80
20487;DHT22;10402;49.012;8.370;2024-02-21T05:52:30;8.90;85.80
20487;DHT22;10402;49.012;8.370;2024-02-21T05:54:56;8.90;85.60
20487;DHT22;10402;49.012;8.370;2024-02-21T05:57:21;8.90;85.60
20487;DHT22;10402;49.012;8.370;2024-02-21T05:59:47;8.90;85.60
20487;DHT22;10402;49.012;8.370;2024-02-21T06:02:12;8.80;85.60
20487;DHT22;10402;49.012;8.370;2024-02-21T06:04:38;8.80;86.80
20487;DHT22;10402;49.012;8.370;2024-02-21T06:07:04;8.80;86.10
20487;DHT22;10402;49.012;8.370;2024-02-21T06:09:30;8.80;86.10
20487;DHT22;10402;49.012;8.370;2024-02-21T06:11:56;8.80;86.00
20487;DHT22;10402;49.012;8.370;2024-02-21T06:14:21;8.80;86.00
20487;DHT22;10402;49.012;8.370;2024-02-21T06:16:47;8.70;86.10
20487;DHT22;10402;49.012;8.370;2024-02-21T06:19:12;8.80;86.20
20487;DHT22;10402;49.012;8.370;2024-02-21T06:21:38;8.70;86.10
20487;DHT22;10402;49.012;8.370;2024-02-21T06:24:04;8.70;86.10
20487;DHT22;10402;49.012;8.370;2024-02-21T06:26:29;8.70;86.80
20487;DHT22;10402;49.012;8.370;2024-02-21T06:28:55;8.70;86.00
20487;DHT22;10402;49.012;8.370;2024-02-21T06:31:20;8.70;86.20
20487;DHT22;10402;49.012;8.370;2024-02-21T06:33:46;8.70;86.20
20487;DHT22;10402;49.012;8.370;2024-02-21T06:36:11;8.60;86.30
20487;DHT22;10402;49.012;8.370;2024-02-21T06:38:37;8.70;86.30
20487;DHT22;10402;49.012;8.370;2024-02-21T06:41:03;8.70;86.40
20487;DHT22;10402;49.012;8.370;2024-02-21T06:43:29;8.70;86.40
20487;DHT22;10402;49.012;8.370;2024-02-21T06:45:55;8.70;86.60
20487;DHT22;10402;49.012;8.370;2024-02-21T06:48:22;8.70;86.70
20487;DHT22;10402;49.012;8.370;2024-02-21T06:50:48;8.60;86.40
20487;DHT22;10402;49.012;8.370;2024-02-21T06:53:13;8.70;86.50
20487;DHT22;10402;49.012;8.370;2024-02-21T06:55:39;8.70;86.60
20487;DHT22;10402;49.012;8.370;2024-02-21T06:58:04;8.70;86.60
20487;DHT22;10402;49.012;8.370;2024-02-21T07:00:30;8.70;86.60
20487;DHT22;10402;49.012;8.370;2024-02-21T07:02:55;8.70;86.60
20487;DHT22;10402;49.012;8.370;2024-02-21T07:05:21;8.60;86.60
20487;DHT22;10402;49.012;8.370;2024-02-21T07:07:47;8.60;86.80
20487;DHT22;10402;49.012;8.370;2024-02-21T07:10:13;8.70;87.00
20487;DHT22;10402;49.012;8.370;2024-02-21T07:12:38;8.70;86.80
20487;DHT22;10402;49.012;8.370;2024-02-21T07:15:07;8.70;86.90
20487;DHT22;10402;49.012;8.370;2024-02-21T07:17:33;8.70;86.70
20487;DHT22;10402;49.012;8.370;2024-02-21T07:19:58;8.70;86.80
20487;DHT22;10402;49.012;8.370;2024-02-21T07:22:24;8.70;86.70
20487;DHT22;10402;49.012;8.370;2024-02-21T07:24:50;8.70;86.60
20487;DHT22;10402;49.012;8.370;2024-02-21T07:27:16;8.70;86.50
20487;DHT22;10402;49.012;8.370;2024-02-21T07:29:41;8.70;86.80
20487;DHT22;10402;49.012;8.370;2024-02-21T07:32:07;8.70;86.80
20487;DHT22;10402;49.012;8.370;2024-02-21T07:34:32;8.70;86.80
20487;DHT22;10402;49.012;8.370;2024-02-21T07:36:58;8.70;86.90
20487;DHT22;10402;49.012;8.370;2024-02-21T07:39:23;8.70;86.90
20487;DHT22;10402;49.012;8.370;2024-02-21T07:41:49;8.70;87.00
20487;DHT22;10402;49.012;8.370;2024-02-21T07:44:15;8.70;87.00
20487;DHT22;10402;49.012;8.370;2024-02-21T07:46:41;8.80;87.00
20487;DHT22;10402;49.012;8.370;2024-02-21T07:49:06;8.80;87.00
20487;DHT22;10402;49.012;8.370;2024-02-21T07:51:32;8.80;87.10
20487;DHT22;10402;49.012;8.370;2024-02-21T07:53:57;8.80;87.10
20487;DHT22;10402;49.012;8.370;2024-02-21T07:56:23;8.90;87.10
20487;DHT22;10402;49.012;8.370;2024-02-21T07:58:48;8.90;87.00
20487;DHT22;10402;49.012;8.370;2024-02-21T08:01:21;9.00;87.10
20487;DHT22;10402;49.012;8.370;2024-02-21T08:03:47;9.00;87.20
20487;DHT22;10402;49.012;8.370;2024-02-21T08:06:13;9.00;87.10
20487;DHT22;10402;49.012;8.370;2024-02-21T08:08:39;9.00;87.00
20487;DHT22;10402;49.012;8.370;2024-02-21T08:11:04;9.10;87.10
20487;DHT22;10402;49.012;8.370;2024-02-21T08:13:30;9.10;87.00
20487;DHT22;10402;49.012;8.370;2024-02-21T08:15:56;9.10;87.00
20487;DHT22;10402;49.012;8.370;2024-02-21T08:18:22;9.20;86.90
20487;DHT22;10402;49.012;8.370;2024-02-21T08:20:48;9.10;86.50
20487;DHT22;10402;49.012;8.370;2024-02-21T08:23:16;9.20;86.70
20487;DHT22;10402;49.012;8.370;2024-02-21T08:25:42;9.20;86.70
20487;DHT22;10402;49.012;8.370;2024-02-21T08:28:07;9.20;86.60
20487;DHT22;10402;49.012;8.370;2024-02-21T08:30:33;9.20;86.40
20487;DHT22;10402;49.012;8.370;2024-02-21T08:32:59;9.30;86.50
20487;DHT22;10402;49.012;8.370;2024-02-21T08:35:25;9.30;86.50
20487;DHT22;10402;49.012;8.370;2024-02-21T08:37:50;9.30;86.30
20487;DHT22;10402;49.012;8.370;2024-02-21T08:40:16;9.30;86.50
20487;DHT22;10402;49.012;8.370;2024-02-21T08:42:47;9.30;86.70
20487;DHT22;10402;49.012;8.370;2024-02-21T08:45:12;9.40;86.70
20487;DHT22;10402;49.012;8.370;2024-02-21T08:47:41;9.40;86.50
20487;DHT22;10402;49.012;8.370;2024-02-21T08:50:08;9.40;86.50
20487;DHT22;10402;49.012;8.370;2024-02-21T08:52:35;9.50;86.50
20487;DHT22;10402;49.012;8.370;2024-02-21T08:55:01;9.50;86.20
20487;DHT22;10402;49.012;8.370;2024-02-21T08:57:27;9.50;86.30
20487;DHT22;10402;49.012;8.370;2024-02-21T08:59:52;9.60;86.50
20487;DHT22;10402;49.012;8.370;2024-02-21T09:02:18;9.60;86.30
20487;DHT22;10402;49.012;8.370;2024-02-21T09:04:44;9.60;86.30
20487;DHT22;10402;49.012;8.370;2024-02-21T09:07:13;9.70;85.90
20487;DHT22;10402;49.012;8.370;2024-02-21T09:09:38;9.70;85.90
20487;DHT22;10402;49.012;8.370;2024-02-21T09:12:07;9.70;85.70
20487;DHT22;10402;49.012;8.370;2024-02-21T09:14:34;9.80;85.80
20487;DHT22;10402;49.012;8.370;2024-02-21T09:16:59;9.80;85.70
20487;DHT22;10402;49.012;8.370;2024-02-21T09:19:25;9.90;85.60
20487;DHT22;10402;49.012;8.370;2024-02-21T09:21:51;9.90;85.50
20487;DHT22;10402;49.012;8.370;2024-02-21T09:24:17;10.00;84.10
20487;DHT22;10402;49.012;8.370;2024-02-21T09:26:43;10.10;84.60
20487;DHT22;10402;49.012;8.370;2024-02-21T09:29:08;10.10;83.30
20487;DHT22;10402;49.012;8.370;2024-02-21T09:31:34;10.20;83.10
20487;DHT22;10402;49.012;8.370;2024-02-21T09:34:00;10.20;82.60
20487;DHT22;10402;49.012;8.370;2024-02-21T09:36:25;10.20;82.20
20487;DHT22;10402;49.012;8.370;2024-02-21T09:38:51;10.30;82.10
20487;DHT22;10402;49.012;8.370;2024-02-21T09:41:25;10.30;81.80
20487;DHT22;10402;49.012;8.370;2024-02-21T09:43:51;10.40;81.90
20487;DHT22;10402;49.012;8.370;2024-02-21T09:46:19;10.40;81.60
20487;DHT22;10402;49.012;8.370;2024-02-21T09:51:27;10.50;81.60
20487;DHT22;10402;49.012;8.370;2024-02-21T09:53:54;10.50;81.60
20487;DHT22;10402;49.012;8.370;2024-02-21T09:56:20;10.50;81.20
20487;DHT22;10402;49.012;8.370;2024-02-21T09:58:47;10.60;80.90
20487;DHT22;10402;49.012;8.370;2024-02-21T10:01:12;10.60;80.50
20487;DHT22;10402;49.012;8.370;2024-02-21T10:03:38;10.60;80.20
20487;DHT22;10402;49.012;8.370;2024-02-21T10:06:04;10.60;80.00
20487;DHT22;10402;49.012;8.370;2024-02-21T10:08:29;10.70;80.30
20487;DHT22;10402;49.012;8.370;2024-02-21T10:10:55;10.70;80.10
20487;DHT22;10402;49.012;8.370;2024-02-21T10:13:25;10.70;80.00
20487;DHT22;10402;49.012;8.370;2024-02-21T10:16:02;10.80;79.90
20487;DHT22;10402;49.012;8.370;2024-02-21T10:18:28;10.80;79.40
20487;DHT22;10402;49.012;8.370;2024-02-21T10:21:20;10.70;79.00
20487;DHT22;10402;49.012;8.370;2024-02-21T10:23:48;10.80;79.30
20487;DHT22;10402;49.012;8.370;2024-02-21T10:26:17;10.80;79.00
20487;DHT22;10402;49.012;8.370;2024-02-21T10:28:43;10.90;79.10
20487;DHT22;10402;49.012;8.370;2024-02-21T10:31:21;10.90;79.20
20487;DHT22;10402;49.012;8.370;2024-02-21T10:33:54;11.00;79.20
20487;DHT22;10402;49.012;8.370;2024-02-21T10:36:20;11.00;78.50
20487;DHT22;10402;49.012;8.370;2024-02-21T10:38:46;11.00;78.50
20487;DHT22;10402;49.012;8.370;2024-02-21T10:41:14;11.10;78.50
20487;DHT22;10402;49.012;8.370;2024-02-21T10:43:41;11.10;77.80
20487;DHT22;10402;49.012;8.370;2024-02-21T10:46:07;11.10;77.90
20487;DHT22;10402;49.012;8.370;2024-02-21T10:48:44;11.20;77.80
20487;DHT22;10402;49.012;8.370;2024-02-21T10:51:17;11.30;78.00
20487;DHT22;10402;49.012;8.370;2024-02-21T10:54:02;11.30;77.80
20487;DHT22;10402;49.012;8.370;2024-02-21T10:56:30;11.40;77.60
20487;DHT22;10402;49.012;8.370;2024-02-21T10:59:01;11.40;77.20
20487;DHT22;10402;49.012;8.370;2024-02-21T11:01:27;11.40;77.20
20487;DHT22;10402;49.012;8.370;2024-02-21T11:03:55;11.40;76.70
20487;DHT22;10402;49.012;8.370;2024-02-21T11:06:22;11.50;76.50
20487;DHT22;10402;49.012;8.370;2024-02-21T11:08:58;11.50;76.30
20487;DHT22;10402;49.012;8.370;2024-02-21T11:11:24;11.50;75.80
20487;DHT22;10402;49.012;8.370;2024-02-21T11:13:50;11.50;75.20
20487;DHT22;10402;49.012;8.370;2024-02-21T11:16:24;11.50;75.20
20487;DHT22;10402;49.012;8.370;2024-02-21T11:18:50;11.60;75.30
20487;DHT22;10402;49.012;8.370;2024-02-21T11:21:15;11.60;75.30
20487;DHT22;10402;49.012;8.370;2024-02-21T11:23:41;11.60;74.90
20487;DHT22;10402;49.012;8.370;2024-02-21T11:26:10;11.60;74.70
20487;DHT22;10402;49.012;8.370;2024-02-21T11:28:36;11.70;74.60
20487;DHT22;10402;49.012;8.370;2024-02-21T11:31:12;11.70;74.20
20487;DHT22;10402;49.012;8.370;2024-02-21T11:33:41;11.70;74.10
20487;DHT22;10402;49.012;8.370;2024-02-21T11:36:11;11.70;74.30
20487;DHT22;10402;49.012;8.370;2024-02-21T11:38:37;11.80;74.40
20487;DHT22;10402;49.012;8.370;2024-02-21T11:41:02;11.80;73.80
20487;DHT22;10402;49.012;8.370;2024-02-21T11:43:28;11.80;73.50
20487;DHT22;10402;49.012;8.370;2024-02-21T11:46:03;11.80;73.00
20487;DHT22;10402;49.012;8.370;2024-02-21T11:48:31;11.80;72.80
20487;DHT22;10402;49.012;8.370;2024-02-21T11:50:57;11.90;73.30
20487;DHT22;10402;49.012;8.370;2024-02-21T11:53:22;11.90;73.00
20487;DHT22;10402;49.012;8.370;2024-02-21T11:55:49;11.90;72.80
20487;DHT22;10402;49.012;8.370;2024-02-21T11:58:15;12.00;72.90
20487;DHT22;10402;49.012;8.370;2024-02-21T12:00:41;12.00;72.80
20487;DHT22;10402;49.012;8.370;2024-02-21T12:03:07;12.00;72.80
20487;DHT22;10402;49.012;8.370;2024-02-21T12:05:33;12.10;72.90
20487;DHT22;10402;49.012;8.370;2024-02-21T12:07:59;12.10;72.50
20487;DHT22;10402;49.012;8.370;2024-02-21T12:10:26;12.10;72.30
20487;DHT22;10402;49.012;8.370;2024-02-21T12:12:52;12.10;71.80
20487;DHT22;10402;49.012;8.370;2024-02-21T12:15:20;12.10;71.80
20487;DHT22;10402;49.012;8.370;2024-02-21T12:17:45;12.10;72.00
20487;DHT22;10402;49.012;8.370;2024-02-21T12:20:11;12.10;72.00
20487;DHT22;10402;49.012;8.370;2024-02-21T12:22:37;12.10;71.80
20487;DHT22;10402;49.012;8.370;2024-02-21T12:25:23;12.10;71.60
20487;DHT22;10402;49.012;8.370;2024-02-21T12:27:51;12.20;71.80
20487;DHT22;10402;49.012;8.370;2024-02-21T12:30:17;12.20;71.50
20487;DHT22;10402;49.012;8.370;2024-02-21T12:32:42;12.20;71.00
20487;DHT22;10402;49.012;8.370;2024-02-21T12:35:08;12.20;70.60
20487;DHT22;10402;49.012;8.370;2024-02-21T12:37:34;12.20;70.40
20487;DHT22;10402;49.012;8.370;2024-02-21T12:39:59;12.20;70.30
20487;DHT22;10402;49.012;8.370;2024-02-21T12:42:25;12.20;70.50
20487;DHT22;10402;49.012;8.370;2024-02-21T12:44:52;12.30;70.70
20487;DHT22;10402;49.012;8.370;2024-02-21T12:47:18;12.30;70.40
20487;DHT22;10402;49.012;8.370;2024-02-21T12:49:45;12.30;70.20
20487;DHT22;10402;49.012;8.370;2024-02-21T12:52:11;12.30;70.00
20487;DHT22;10402;49.012;8.370;2024-02-21T12:54:36;12.30;70.00
20487;DHT22;10402;49.012;8.370;2024-02-21T12:57:02;12.30;70.00
20487;DHT22;10402;49.012;8.370;2024-02-21T12:59:29;12.30;70.00
20487;DHT22;10402;49.012;8.370;2024-02-21T13:01:54;12.30;70.00
20487;DHT22;10402;49.012;8.370;2024-02-21T13:04:20;12.30;70.00
20487;DHT22;10402;49.012;8.370;2024-02-21T13:06:48;12.30;69.80
20487;DHT22;10402;49.012;8.370;2024-02-21T13:09:14;12.40;69.30
20487;DHT22;10402;49.012;8.370;2024-02-21T13:11:40;12.40;69.40
20487;DHT22;10402;49.012;8.370;2024-02-21T13:14:06;12.40;69.20
20487;DHT22;10402;49.012;8.370;2024-02-21T13:16:32;12.40;69.00
20487;DHT22;10402;49.012;8.370;2024-02-21T13:18:59;12.40;69.00
20487;DHT22;10402;49.012;8.370;2024-02-21T13:21:25;12.40;69.00
20487;DHT22;10402;49.012;8.370;2024-02-21T13:23:51;12.50;69.30
20487;DHT22;10402;49.012;8.370;2024-02-21T13:26:16;12.50;69.00
20487;DHT22;10402;49.012;8.370;2024-02-21T13:28:42;12.60;68.60
20487;DHT22;10402;49.012;8.370;2024-02-21T13:31:10;12.60;68.50
20487;DHT22;10402;49.012;8.370;2024-02-21T13:33:35;12.60;68.40
20487;DHT22;10402;49.012;8.370;2024-02-21T13:36:02;12.60;68.20
20487;DHT22;10402;49.012;8.370;2024-02-21T13:38:29;12.50;67.60
20487;DHT22;10402;49.012;8.370;2024-02-21T13:40:54;12.50;67.30
20487;DHT22;10402;49.012;8.370;2024-02-21T13:43:20;12.50;67.10
20487;DHT22;10402;49.012;8.370;2024-02-21T13:46:01;12.50;68.30
20487;DHT22;10402;49.012;8.370;2024-02-21T13:48:30;12.50;66.80
20487;DHT22;10402;49.012;8.370;2024-02-21T13:50:56;12.50;67.00
20487;DHT22;10402;49.012;8.370;2024-02-21T13:53:22;12.50;67.00
20487;DHT22;10402;49.012;8.370;2024-02-21T13:55:48;12.50;67.20
20487;DHT22;10402;49.012;8.370;2024-02-21T13:58:15;12.50;67.20
20487;DHT22;10402;49.012;8.370;2024-02-21T14:00:41;12.60;67.40
20487;DHT22;10402;49.012;8.370;2024-02-21T14:03:06;12.60;67.20
20487;DHT22;10402;49.012;8.370;2024-02-21T14:05:32;12.60;67.20
20487;DHT22;10402;49.012;8.370;2024-02-21T14:07:57;12.60;67.30
20487;DHT22;10402;49.012;8.370;2024-02-21T14:10:23;12.70;67.20
20487;DHT22;10402;49.012;8.370;2024-02-21T14:12:49;12.70;67.30
20487;DHT22;10402;49.012;8.370;2024-02-21T14:15:14;12.70;67.10
20487;DHT22;10402;49.012;8.370;2024-02-21T14:17:42;12.70;67.20
20487;DHT22;10402;49.012;8.370;2024-02-21T14:20:08;12.70;67.20
20487;DHT22;10402;49.012;8.370;2024-02-21T14:22:34;12.70;67.20
20487;DHT22;10402;49.012;8.370;2024-02-21T14:25:00;12.70;67.30
20487;DHT22;10402;49.012;8.370;2024-02-21T14:27:26;12.80;67.30
20487;DHT22;10402;49.012;8.370;2024-02-21T14:29:51;12.80;67.20
20487;DHT22;10402;49.012;8.370;2024-02-21T14:32:18;12.80;67.30
20487;DHT22;10402;49.012;8.370;2024-02-21T14:34:45;12.80;67.20
20487;DHT22;10402;49.012;8.370;2024-02-21T14:37:10;12.80;67.30
20487;DHT22;10402;49.012;8.370;2024-02-21T14:39:36;12.80;67.30
20487;DHT22;10402;49.012;8.370;2024-02-21T14:42:01;12.80;67.30
20487;DHT22;10402;49.012;8.370;2024-02-21T14:44:28;12.80;67.20
20487;DHT22;10402;49.012;8.370;2024-02-21T14:46:54;12.80;67.00
20487;DHT22;10402;49.012;8.370;2024-02-21T14:49:19;12.80;67.00
20487;DHT22;10402;49.012;8.370;2024-02-21T14:51:45;12.80;67.10
20487;DHT22;10402;49.012;8.370;2024-02-21T14:54:11;12.80;66.90
20487;DHT22;10402;49.012;8.370;2024-02-21T14:56:36;12.80;66.90
20487;DHT22;10402;49.012;8.370;2024-02-21T14:59:02;12.80;66.90
20487;DHT22;10402;49.012;8.370;2024-02-21T15:01:29;12.70;66.80
20487;DHT22;10402;49.012;8.370;2024-02-21T15:03:55;12.80;66.90
20487;DHT22;10402;49.012;8.370;2024-02-21T15:06:20;12.80;67.00
20487;DHT22;10402;49.012;8.370;2024-02-21T15:08:46;12.70;67.20
20487;DHT22;10402;49.012;8.370;2024-02-21T15:11:14;12.70;67.60
20487;DHT22;10402;49.012;8.370;2024-02-21T15:13:39;12.70;67.80
20487;DHT22;10402;49.012;8.370;2024-02-21T15:16:05;12.70;67.50
20487;DHT22;10402;49.012;8.370;2024-02-21T15:18:31;12.70;67.50
20487;DHT22;10402;49.012;8.370;2024-02-21T15:20:59;12.60;67.60
20487;DHT22;10402;49.012;8.370;2024-02-21T15:23:25;12.70;67.60
20487;DHT22;10402;49.012;8.370;2024-02-21T15:25:50;12.70;67.60
20487;DHT22;10402;49.012;8.370;2024-02-21T15:28:16;12.60;67.20
20487;DHT22;10402;49.012;8.370;2024-02-21T15:30:41;12.60;67.20
20487;DHT22;10402;49.012;8.370;2024-02-21T15:33:07;12.60;67.40
20487;DHT22;10402;49.012;8.370;2024-02-21T15:35:32;12.60;67.70